sensor_id;sensor_type;location;lat;lon;timestamp;pressure;altitude;pressure_sealevel;temperature;humidity
53940;BME280;39850;43.324;21.916;2023-12-20T00:01:58;996.0;;;2.5;81.0
53940;BME280;39850;43.324;21.916;2023-12-20T00:06:34;996.0;;;2.5;81.0
53940;BME280;39850;43.324;21.916;2023-12-20T00:11:11;996.0;;;2.5;81.0
53940;BME280;39850;43.324;21.916;2023-12-20T00:15:47;996.0;;;2.8;80.0
53940;BME280;39850;43.324;21.916;2023-12-20T00:20:23;996.0;;;2.8;80.0
53940;BME280;39850;43.324;21.916;2023-12-20T00:25:00;995.0;;;3.2;79.0
53940;BME280;39850;43.324;21.916;2023-12-20T00:29:36;995.0;;;3.2;79.0
53940;BME280;39850;43.324;21.916;2023-12-20T01:01:51;995.0;;;2.7;80.0
53940;BME280;39850;43.324;21.916;2023-12-20T01:06:27;995.0;;;2.7;80.0
53940;BME280;39850;43.324;21.916;2023-12-20T01:11:06;995.0;;;2.7;80.0
53940;BME280;39850;43.324;21.916;2023-12-20T01:15:42;995.0;;;2.7;80.0
53940;BME280;39850;43.324;21.916;2023-12-20T01:20:18;995.0;;;2.7;80.0
53940;BME280;39850;43.324;21.916;2023-12-20T01:24:55;995.0;;;2.7;80.0
53940;BME280;39850;43.324;21.916;2023-12-20T01:29:31;995.0;;;2.7;80.0
53940;BME280;39850;43.324;21.916;2023-12-20T01:34:07;994.0;;;2.7;80.0
53940;BME280;39850;43.324;21.916;2023-12-20T01:38:44;994.0;;;2.7;80.0
53940;BME280;39850;43.324;21.916;2023-12-20T01:43:20;994.0;;;2.7;80.0
53940;BME280;39850;43.324;21.916;2023-12-20T01:48:01;994.0;;;2.7;80.0
53940;BME280;39850;43.324;21.916;2023-12-20T02:24:59;994.0;;;2.7;80.0
53940;BME280;39850;43.324;21.916;2023-12-20T02:29:37;994.0;;;2.7;80.0
53940;BME280;39850;43.324;21.916;2023-12-20T02:34:13;994.0;;;2.7;80.0
53940;BME280;39850;43.324;21.916;2023-12-20T02:38:49;994.0;;;2.7;80.0
53940;BME280;39850;43.324;21.916;2023-12-20T02:43:25;994.0;;;2.7;80.0
53940;BME280;39850;43.324;21.916;2023-12-20T02:48:04;994.0;;;2.7;80.0
53940;BME280;39850;43.324;21.916;2023-12-20T02:52:45;994.0;;;2.6;80.0
53940;BME280;39850;43.324;21.916;2023-12-20T02:57:21;994.0;;;2.6;80.0
53940;BME280;39850;43.324;21.916;2023-12-20T03:01:58;994.0;;;2.6;80.0
53940;BME280;39850;43.324;21.916;2023-12-20T03:06:34;993.0;;;2.5;79.0
53940;BME280;39850;43.324;21.916;2023-12-20T03:11:11;993.0;;;2.5;79.0
53940;BME280;39850;43.324;21.916;2023-12-20T03:43:25;993.0;;;1.6;81.0
53940;BME280;39850;43.324;21.916;2023-12-20T03:48:02;993.0;;;1.6;81.0
53940;BME280;39850;43.324;21.916;2023-12-20T03:52:38;993.0;;;1.6;81.0
53940;BME280;39850;43.324;21.916;2023-12-20T03:57:14;993.0;;;1.6;81.0
53940;BME280;39850;43.324;21.916;2023-12-20T04:01:51;993.0;;;1.6;81.0
53940;BME280;39850;43.324;21.916;2023-12-20T04:06:27;993.0;;;1.6;81.0
53940;BME280;39850;43.324;21.916;2023-12-20T04:11:07;993.0;;;1.6;81.0
53940;BME280;39850;43.324;21.916;2023-12-20T04:15:44;993.0;;;2.0;80.0
53940;BME280;39850;43.324;21.916;2023-12-20T04:20:20;993.0;;;2.0;80.0
53940;BME280;39850;43.324;21.916;2023-12-20T04:24:56;993.0;;;2.5;80.0
53940;BME280;39850;43.324;21.916;2023-12-20T04:29:33;993.0;;;2.5;80.0
53940;BME280;39850;43.324;21.916;2023-12-20T05:06:24;992.0;;;1.6;80.0
53940;BME280;39850;43.324;21.916;2023-12-20T05:11:01;992.0;;;1.6;80.0
53940;BME280;39850;43.324;21.916;2023-12-20T05:15:38;992.0;;;1.6;80.0
53940;BME280;39850;43.324;21.916;2023-12-20T05:20:14;992.0;;;1.6;80.0
53940;BME280;39850;43.324;21.916;2023-12-20T05:24:51;992.0;;;1.6;80.0
53940;BME280;39850;43.324;21.916;2023-12-20T05:29:27;992.0;;;1.6;80.0
53940;BME280;39850;43.324;21.916;2023-12-20T05:34:03;992.0;;;1.6;81.0
53940;BME280;39850;43.324;21.916;2023-12-20T05:38:40;992.0;;;1.6;81.0
53940;BME280;39850;43.324;21.916;2023-12-20T05:43:16;992.0;;;1.6;82.0
53940;BME280;39850;43.324;21.916;2023-12-20T05:47:52;992.0;;;1.6;82.0
53940;BME280;39850;43.324;21.916;2023-12-20T05:52:29;992.0;;;1.6;82.0
53940;BME280;39850;43.324;21.916;2023-12-20T06:24:47;991.0;;;2.5;79.0
53940;BME280;39850;43.324;21.916;2023-12-20T06:29:23;991.0;;;2.5;79.0
53940;BME280;39850;43.324;21.916;2023-12-20T06:34:00;991.0;;;2.5;79.0
53940;BME280;39850;43.324;21.916;2023-12-20T06:38:36;991.0;;;2.5;79.0
53940;BME280;39850;43.324;21.916;2023-12-20T06:43:14;991.0;;;2.6;80.0
53940;BME280;39850;43.324;21.916;2023-12-20T06:47:50;991.0;;;2.6;80.0
53940;BME280;39850;43.324;21.916;2023-12-20T06:52:27;991.0;;;2.6;80.0
53940;BME280;39850;43.324;21.916;2023-12-20T06:57:04;991.0;;;2.6;81.0
53940;BME280;39850;43.324;21.916;2023-12-20T07:01:40;991.0;;;2.6;81.0
53940;BME280;39850;43.324;21.916;2023-12-20T07:06:16;991.0;;;2.6;81.0
53940;BME280;39850;43.324;21.916;2023-12-20T07:10:53;991.0;;;2.6;81.0
53940;BME280;39850;43.324;21.916;2023-12-20T07:47:47;991.0;;;3.6;78.0
53940;BME280;39850;43.324;21.916;2023-12-20T07:52:24;991.0;;;3.6;78.0
53940;BME280;39850;43.324;21.916;2023-12-20T07:57:00;991.0;;;3.6;79.0
53940;BME280;39850;43.324;21.916;2023-12-20T08:01:36;991.0;;;3.6;79.0
53940;BME280;39850;43.324;21.916;2023-12-20T08:06:13;991.0;;;3.6;79.0
53940;BME280;39850;43.324;21.916;2023-12-20T08:10:49;991.0;;;3.6;79.0
53940;BME280;39850;43.324;21.916;2023-12-20T08:15:25;991.0;;;3.6;80.0
53940;BME280;39850;43.324;21.916;2023-12-20T08:20:08;991.0;;;3.6;80.0
53940;BME280;39850;43.324;21.916;2023-12-20T08:24:44;991.0;;;3.5;80.0
53940;BME280;39850;43.324;21.916;2023-12-20T08:29:20;991.0;;;3.5;80.0
53940;BME280;39850;43.324;21.916;2023-12-20T09:06:12;990.0;;;5.5;75.0
53940;BME280;39850;43.324;21.916;2023-12-20T09:10:48;990.0;;;5.5;75.0
53940;BME280;39850;43.324;21.916;2023-12-20T09:15:27;990.0;;;5.6;75.0
53940;BME280;39850;43.324;21.916;2023-12-20T09:20:07;990.0;;;5.6;75.0
53940;BME280;39850;43.324;21.916;2023-12-20T09:24:43;990.0;;;5.6;75.0
53940;BME280;39850;43.324;21.916;2023-12-20T09:29:20;990.0;;;5.6;75.0
53940;BME280;39850;43.324;21.916;2023-12-20T09:33:56;990.0;;;5.7;74.0
53940;BME280;39850;43.324;21.916;2023-12-20T09:38:32;990.0;;;5.7;74.0
53940;BME280;39850;43.324;21.916;2023-12-20T09:43:20;990.0;;;5.7;74.0
53940;BME280;39850;43.324;21.916;2023-12-20T09:47:59;990.0;;;5.8;74.0
53940;BME280;39850;43.324;21.916;2023-12-20T09:52:41;990.0;;;5.8;74.0
53940;BME280;39850;43.324;21.916;2023-12-20T10:25:08;989.0;;;6.3;73.0
53940;BME280;39850;43.324;21.916;2023-12-20T10:29:45;989.0;;;6.3;73.0
53940;BME280;39850;43.324;21.916;2023-12-20T10:34:21;988.0;;;6.2;72.0
53940;BME280;39850;43.324;21.916;2023-12-20T10:39:01;988.0;;;6.2;72.0
53940;BME280;39850;43.324;21.916;2023-12-20T10:43:41;988.0;;;6.2;72.0
53940;BME280;39850;43.324;21.916;2023-12-20T10:48:22;988.0;;;6.2;72.0
53940;BME280;39850;43.324;21.916;2023-12-20T10:52:59;988.0;;;6.2;72.0
53940;BME280;39850;43.324;21.916;2023-12-20T10:57:38;988.0;;;6.2;71.0
53940;BME280;39850;43.324;21.916;2023-12-20T11:02:14;988.0;;;6.2;71.0
53940;BME280;39850;43.324;21.916;2023-12-20T11:07:29;988.0;;;6.2;72.0
53940;BME280;39850;43.324;21.916;2023-12-20T11:12:38;988.0;;;6.2;72.0
53940;BME280;39850;43.324;21.916;2023-12-20T11:45:04;987.0;;;8.3;74.0
53940;BME280;39850;43.324;21.916;2023-12-20T11:49:40;987.0;;;8.3;74.0
53940;BME280;39850;43.324;21.916;2023-12-20T11:54:16;987.0;;;8.6;69.0
53940;BME280;39850;43.324;21.916;2023-12-20T11:58:54;987.0;;;8.6;69.0
53940;BME280;39850;43.324;21.916;2023-12-20T12:03:32;987.0;;;8.6;69.0
53940;BME280;39850;43.324;21.916;2023-12-20T12:08:08;987.0;;;8.6;67.0
53940;BME280;39850;43.324;21.916;2023-12-20T12:12:45;987.0;;;8.6;67.0
53940;BME280;39850;43.324;21.916;2023-12-20T12:17:21;987.0;;;8.8;66.0
53940;BME280;39850;43.324;21.916;2023-12-20T12:22:13;987.0;;;8.8;66.0
53940;BME280;39850;43.324;21.916;2023-12-20T12:26:52;987.0;;;8.6;67.0
53940;BME280;39850;43.324;21.916;2023-12-20T12:31:28;987.0;;;8.6;67.0
53940;BME280;39850;43.324;21.916;2023-12-20T13:08:23;986.0;;;8.2;65.0
53940;BME280;39850;43.324;21.916;2023-12-20T13:12:59;986.0;;;8.2;65.0
53940;BME280;39850;43.324;21.916;2023-12-20T13:17:35;986.0;;;8.6;65.0
53940;BME280;39850;43.324;21.916;2023-12-20T13:22:12;986.0;;;8.6;65.0
53940;BME280;39850;43.324;21.916;2023-12-20T13:26:48;986.0;;;9.1;65.0
53940;BME280;39850;43.324;21.916;2023-12-20T13:31:25;986.0;;;9.1;65.0
53940;BME280;39850;43.324;21.916;2023-12-20T13:36:02;986.0;;;9.1;65.0
53940;BME280;39850;43.324;21.916;2023-12-20T13:40:38;986.0;;;9.1;65.0
53940;BME280;39850;43.324;21.916;2023-12-20T13:45:16;986.0;;;9.1;64.0
53940;BME280;39850;43.324;21.916;2023-12-20T13:49:52;986.0;;;9.1;64.0
53940;BME280;39850;43.324;21.916;2023-12-20T14:26:43;986.0;;;9.1;63.0
53940;BME280;39850;43.324;21.916;2023-12-20T14:31:20;986.0;;;9.1;63.0
53940;BME280;39850;43.324;21.916;2023-12-20T14:35:56;986.0;;;8.6;64.0
53940;BME280;39850;43.324;21.916;2023-12-20T14:40:32;986.0;;;8.6;64.0
53940;BME280;39850;43.324;21.916;2023-12-20T14:45:12;986.0;;;8.2;65.0
53940;BME280;39850;43.324;21.916;2023-12-20T14:49:48;986.0;;;8.2;65.0
53940;BME280;39850;43.324;21.916;2023-12-20T14:54:25;986.0;;;8.2;65.0
53940;BME280;39850;43.324;21.916;2023-12-20T14:59:01;986.0;;;8.1;65.0
53940;BME280;39850;43.324;21.916;2023-12-20T15:03:38;986.0;;;8.1;65.0
53940;BME280;39850;43.324;21.916;2023-12-20T15:08:15;986.0;;;8.2;65.0
53940;BME280;39850;43.324;21.916;2023-12-20T15:12:51;986.0;;;8.2;65.0
53940;BME280;39850;43.324;21.916;2023-12-20T15:45:10;986.0;;;8.0;67.0
53940;BME280;39850;43.324;21.916;2023-12-20T15:49:46;986.0;;;8.0;67.0
53940;BME280;39850;43.324;21.916;2023-12-20T15:54:23;986.0;;;8.0;67.0
53940;BME280;39850;43.324;21.916;2023-12-20T15:58:59;986.0;;;8.1;67.0
53940;BME280;39850;43.324;21.916;2023-12-20T16:03:35;986.0;;;8.1;67.0
53940;BME280;39850;43.324;21.916;2023-12-20T16:08:12;986.0;;;8.2;67.0
53940;BME280;39850;43.324;21.916;2023-12-20T16:12:49;986.0;;;8.2;67.0
53940;BME280;39850;43.324;21.916;2023-12-20T16:17:25;986.0;;;8.2;68.0
53940;BME280;39850;43.324;21.916;2023-12-20T16:22:01;986.0;;;8.2;68.0
53940;BME280;39850;43.324;21.916;2023-12-20T16:26:38;986.0;;;8.2;69.0
53940;BME280;39850;43.324;21.916;2023-12-20T16:31:14;986.0;;;8.2;69.0
53940;BME280;39850;43.324;21.916;2023-12-20T17:08:09;986.0;;;6.2;74.0
53940;BME280;39850;43.324;21.916;2023-12-20T17:12:46;986.0;;;6.2;74.0
53940;BME280;39850;43.324;21.916;2023-12-20T17:17:22;986.0;;;6.2;74.0
53940;BME280;39850;43.324;21.916;2023-12-20T17:21:58;986.0;;;6.2;74.0
53940;BME280;39850;43.324;21.916;2023-12-20T17:26:35;987.0;;;6.2;75.0
53940;BME280;39850;43.324;21.916;2023-12-20T17:31:11;987.0;;;6.2;75.0
53940;BME280;39850;43.324;21.916;2023-12-20T17:35:48;987.0;;;6.2;75.0
53940;BME280;39850;43.324;21.916;2023-12-20T17:40:24;987.0;;;6.2;75.0
53940;BME280;39850;43.324;21.916;2023-12-20T17:45:00;987.0;;;6.2;75.0
53940;BME280;39850;43.324;21.916;2023-12-20T17:49:37;987.0;;;6.2;75.0
53940;BME280;39850;43.324;21.916;2023-12-20T17:54:14;987.0;;;6.2;75.0
53940;BME280;39850;43.324;21.916;2023-12-20T18:26:31;987.0;;;7.0;77.0
53940;BME280;39850;43.324;21.916;2023-12-20T18:31:08;987.0;;;7.0;77.0
53940;BME280;39850;43.324;21.916;2023-12-20T18:35:44;987.0;;;6.8;76.0
53940;BME280;39850;43.324;21.916;2023-12-20T18:40:21;987.0;;;6.8;76.0
53940;BME280;39850;43.324;21.916;2023-12-20T18:44:58;987.0;;;6.8;76.0
53940;BME280;39850;43.324;21.916;2023-12-20T18:49:34;987.0;;;6.5;76.0
53940;BME280;39850;43.324;21.916;2023-12-20T18:54:11;987.0;;;6.5;76.0
53940;BME280;39850;43.324;21.916;2023-12-20T18:58:47;987.0;;;6.4;76.0
53940;BME280;39850;43.324;21.916;2023-12-20T19:03:24;987.0;;;6.4;76.0
53940;BME280;39850;43.324;21.916;2023-12-20T19:08:00;987.0;;;6.3;76.0
53940;BME280;39850;43.324;21.916;2023-12-20T19:12:37;987.0;;;6.3;76.0
53940;BME280;39850;43.324;21.916;2023-12-20T19:49:29;988.0;;;5.8;76.0
53940;BME280;39850;43.324;21.916;2023-12-20T19:54:05;988.0;;;5.8;76.0
53940;BME280;39850;43.324;21.916;2023-12-20T19:58:42;988.0;;;5.6;76.0
53940;BME280;39850;43.324;21.916;2023-12-20T20:03:18;988.0;;;5.6;76.0
53940;BME280;39850;43.324;21.916;2023-12-20T20:07:54;988.0;;;5.5;76.0
53940;BME280;39850;43.324;21.916;2023-12-20T20:12:31;988.0;;;5.5;76.0
53940;BME280;39850;43.324;21.916;2023-12-20T20:17:07;988.0;;;5.5;76.0
53940;BME280;39850;43.324;21.916;2023-12-20T20:21:44;988.0;;;5.5;76.0
53940;BME280;39850;43.324;21.916;2023-12-20T20:26:21;988.0;;;5.5;76.0
53940;BME280;39850;43.324;21.916;2023-12-20T20:30:57;988.0;;;5.5;76.0
53940;BME280;39850;43.324;21.916;2023-12-20T20:35:34;988.0;;;5.5;76.0
53940;BME280;39850;43.324;21.916;2023-12-20T21:07:50;988.0;;;6.4;76.0
53940;BME280;39850;43.324;21.916;2023-12-20T21:12:26;988.0;;;6.4;76.0
53940;BME280;39850;43.324;21.916;2023-12-20T21:17:04;988.0;;;6.4;76.0
53940;BME280;39850;43.324;21.916;2023-12-20T21:21:40;988.0;;;6.4;76.0
53940;BME280;39850;43.324;21.916;2023-12-20T21:26:17;988.0;;;6.3;76.0
53940;BME280;39850;43.324;21.916;2023-12-20T21:30:53;988.0;;;6.3;76.0
53940;BME280;39850;43.324;21.916;2023-12-20T21:35:30;988.0;;;6.3;76.0
53940;BME280;39850;43.324;21.916;2023-12-20T21:40:11;989.0;;;6.2;76.0
53940;BME280;39850;43.324;21.916;2023-12-20T21:44:47;989.0;;;6.2;76.0
53940;BME280;39850;43.324;21.916;2023-12-20T21:49:23;989.0;;;6.2;76.0
53940;BME280;39850;43.324;21.916;2023-12-20T21:54:00;989.0;;;6.2;76.0
53940;BME280;39850;43.324;21.916;2023-12-20T22:26:16;989.0;;;6.4;78.0
53940;BME280;39850;43.324;21.916;2023-12-20T22:30:53;989.0;;;6.4;78.0
53940;BME280;39850;43.324;21.916;2023-12-20T22:35:29;989.0;;;6.4;78.0
53940;BME280;39850;43.324;21.916;2023-12-20T22:40:11;989.0;;;6.4;79.0
53940;BME280;39850;43.324;21.916;2023-12-20T22:44:47;989.0;;;6.4;79.0
53940;BME280;39850;43.324;21.916;2023-12-20T22:49:24;989.0;;;6.4;80.0
53940;BME280;39850;43.324;21.916;2023-12-20T22:54:01;989.0;;;6.4;80.0
53940;BME280;39850;43.324;21.916;2023-12-20T22:58:37;989.0;;;6.4;80.0
53940;BME280;39850;43.324;21.916;2023-12-20T23:03:15;989.0;;;6.4;80.0
53940;BME280;39850;43.324;21.916;2023-12-20T23:07:51;989.0;;;6.4;80.0
53940;BME280;39850;43.324;21.916;2023-12-20T23:12:27;989.0;;;6.4;80.0
53940;BME280;39850;43.324;21.916;2023-12-20T23:49:21;990.0;;;5.3;79.0
53940;BME280;39850;43.324;21.916;2023-12-20T23:53:57;990.0;;;5.3;79.0
53940;BME280;39850;43.324;21.916;2023-12-20T23:58:33;990.0;;;5.3;79.0
